createdAt,value
2022-08-01T00:00:58.192Z,17.70
2022-08-01T00:02:00.978Z,17.80
2022-08-01T00:03:05.181Z,17.80
2022-08-01T00:04:08.966Z,17.80
2022-08-01T00:05:13.153Z,17.80
2022-08-01T00:06:15.636Z,17.80
2022-08-01T00:07:19.032Z,17.80
2022-08-01T00:08:21.736Z,17.80
2022-08-01T00:09:25.120Z,17.80
2022-08-01T00:10:27.952Z,17.70
2022-08-01T00:11:31.677Z,17.70
2022-08-01T00:12:34.316Z,17.70
2022-08-01T00:13:37.918Z,17.70
2022-08-01T00:14:40.433Z,17.60
2022-08-01T00:15:54.152Z,17.60
2022-08-01T00:16:56.873Z,17.60
2022-08-01T00:18:00.473Z,17.50
2022-08-01T00:19:03.300Z,17.50
2022-08-01T00:20:10.709Z,17.60
2022-08-01T00:21:13.017Z,17.60
2022-08-01T00:22:16.493Z,17.70
2022-08-01T00:23:18.856Z,17.80
2022-08-01T00:24:22.725Z,17.80
2022-08-01T00:25:33.479Z,17.80
2022-08-01T00:26:37.897Z,17.80
2022-08-01T00:27:40.534Z,17.80
2022-08-01T00:28:43.898Z,17.80
2022-08-01T00:30:12.380Z,17.90
2022-08-01T00:31:10.596Z,17.90
2022-08-01T00:32:13.350Z,17.90
2022-08-01T00:33:17.022Z,17.80
2022-08-01T00:34:19.522Z,17.70
2022-08-01T00:35:24.456Z,17.80
2022-08-01T00:36:26.963Z,17.70
2022-08-01T00:37:30.251Z,17.70
2022-08-01T00:38:32.913Z,17.70
2022-08-01T00:39:36.483Z,17.60
2022-08-01T00:40:39.135Z,17.70
2022-08-01T00:41:42.503Z,17.60
2022-08-01T00:42:44.802Z,17.60
2022-08-01T00:43:48.564Z,17.60
2022-08-01T00:44:50.982Z,17.60
2022-08-01T00:45:54.343Z,17.60
2022-08-01T00:46:56.706Z,17.60
2022-08-01T00:48:00.222Z,17.60
2022-08-01T00:49:04.422Z,17.50
2022-08-01T00:50:13.002Z,17.40
2022-08-01T00:51:19.588Z,17.50
2022-08-01T00:52:22.066Z,17.50
2022-08-01T00:53:26.170Z,17.50
2022-08-01T00:54:29.495Z,17.50
2022-08-01T00:55:34.010Z,17.40
2022-08-01T00:56:36.603Z,14.80
2022-08-01T00:58:01.847Z,17.60
2022-08-01T00:59:06.789Z,17.50
2022-08-01T01:00:10.414Z,17.60
2022-08-01T01:01:13.878Z,17.60
2022-08-01T01:02:17.154Z,17.60
2022-08-01T01:03:23.870Z,17.60
2022-08-01T01:04:36.125Z,17.50
2022-08-01T01:05:54.047Z,17.50
2022-08-01T01:07:08.208Z,17.50
2022-08-01T01:08:21.263Z,17.50
2022-08-01T01:09:35.229Z,17.50
2022-08-01T01:10:47.888Z,17.90
2022-08-01T01:12:03.027Z,17.50
2022-08-01T01:13:11.487Z,17.50
2022-08-01T01:14:23.038Z,17.60
2022-08-01T01:15:37.273Z,17.70
2022-08-01T01:16:43.578Z,17.60
2022-08-01T01:17:54.076Z,17.60
2022-08-01T01:19:01.395Z,17.70
2022-08-01T01:20:09.388Z,17.60
2022-08-01T01:21:49.886Z,17.70
2022-08-01T01:23:01.878Z,17.60
2022-08-01T01:24:23.247Z,17.60
2022-08-01T01:25:47.890Z,17.60
2022-08-01T01:26:59.313Z,17.60
2022-08-01T01:28:13.753Z,17.60
2022-08-01T01:29:23.778Z,17.60
2022-08-01T01:30:32.680Z,17.60
2022-08-01T01:31:41.835Z,17.60
2022-08-01T01:32:50.273Z,17.60
2022-08-01T01:33:55.413Z,17.50
2022-08-01T01:35:00.738Z,17.40
2022-08-01T01:36:11.624Z,17.50
2022-08-01T01:37:21.136Z,17.40
2022-08-01T01:38:27.740Z,17.40
2022-08-01T01:39:34.510Z,17.40
2022-08-01T01:40:39.456Z,17.40
2022-08-01T01:41:45.899Z,17.40
2022-08-01T01:42:52.888Z,17.30
2022-08-01T01:43:57.240Z,17.30
2022-08-01T01:45:04.375Z,17.30
2022-08-01T01:46:11.137Z,17.30
2022-08-01T01:47:16.114Z,17.20
2022-08-01T01:48:23.549Z,17.20
2022-08-01T01:49:28.994Z,17.20
2022-08-01T01:50:34.793Z,17.20
2022-08-01T01:51:40.902Z,17.20
2022-08-01T01:52:47.002Z,17.20
2022-08-01T01:53:52.344Z,15.50
2022-08-01T01:54:59.000Z,18.40
2022-08-01T01:56:04.153Z,17.20
2022-08-01T01:57:10.848Z,17.10
2022-08-01T01:58:16.289Z,17.30
2022-08-01T01:59:25.911Z,17.10
2022-08-01T02:00:32.739Z,17.00
2022-08-01T02:02:04.901Z,17.10
2022-08-01T02:03:03.809Z,17.10
2022-08-01T02:04:08.307Z,17.00
2022-08-01T02:05:13.204Z,17.00
2022-08-01T02:06:19.078Z,17.00
2022-08-01T02:07:25.512Z,16.90
2022-08-01T02:08:33.226Z,17.20
2022-08-01T02:09:38.427Z,17.00
2022-08-01T02:10:42.732Z,17.00
2022-08-01T02:12:07.249Z,17.00
2022-08-01T02:13:12.346Z,17.00
2022-08-01T02:14:16.904Z,17.00
2022-08-01T02:15:21.687Z,16.90
2022-08-01T02:16:29.382Z,16.90
2022-08-01T02:17:33.567Z,16.90
2022-08-01T02:18:36.744Z,16.90
2022-08-01T02:19:41.185Z,16.20
2022-08-01T02:20:44.059Z,16.90
2022-08-01T02:21:54.435Z,16.90
2022-08-01T02:23:02.849Z,16.90
2022-08-01T02:24:15.501Z,16.90
2022-08-01T02:25:25.036Z,16.80
2022-08-01T02:26:30.680Z,16.80
2022-08-01T02:27:39.276Z,16.90
2022-08-01T02:28:49.716Z,16.90
2022-08-01T02:29:59.772Z,16.90
2022-08-01T02:33:39.446Z,16.90
2022-08-01T02:34:48.532Z,16.90
2022-08-01T02:36:30.521Z,16.90
2022-08-01T02:37:19.730Z,16.90
2022-08-01T02:38:25.996Z,16.90
2022-08-01T02:39:33.922Z,16.90
2022-08-01T02:40:42.759Z,15.10
2022-08-01T02:41:52.265Z,16.80
2022-08-01T02:42:58.093Z,14.40
2022-08-01T02:44:05.555Z,16.80
2022-08-01T02:45:10.362Z,16.70
2022-08-01T02:46:22.099Z,16.80
2022-08-01T02:47:29.154Z,16.80
2022-08-01T02:48:37.656Z,16.80
2022-08-01T02:49:46.458Z,16.70
2022-08-01T02:51:01.106Z,16.70
2022-08-01T02:52:10.552Z,16.70
2022-08-01T02:53:15.952Z,16.70
2022-08-01T02:54:23.476Z,16.60
2022-08-01T02:55:28.302Z,16.60
2022-08-01T02:56:36.997Z,16.60
2022-08-01T02:57:51.701Z,16.60
2022-08-01T02:58:56.958Z,16.60
2022-08-01T03:00:02.215Z,16.50
2022-08-01T03:01:09.321Z,16.50
2022-08-01T03:02:19.136Z,16.50
2022-08-01T03:03:29.691Z,16.50
2022-08-01T03:04:36.725Z,16.50
2022-08-01T03:05:41.147Z,16.50
2022-08-01T03:06:46.037Z,16.50
2022-08-01T03:07:49.356Z,16.50
2022-08-01T03:08:56.176Z,16.60
2022-08-01T03:10:00.103Z,15.30
2022-08-01T03:11:05.742Z,16.50
2022-08-01T03:12:13.187Z,16.50
2022-08-01T03:13:20.402Z,16.40
2022-08-01T03:14:29.049Z,16.50
2022-08-01T03:15:34.851Z,16.50
2022-08-01T03:16:43.067Z,16.50
2022-08-01T03:17:49.105Z,16.50
2022-08-01T03:18:57.296Z,16.60
2022-08-01T03:20:07.200Z,16.60
2022-08-01T03:21:13.183Z,16.60
2022-08-01T03:22:20.917Z,16.70
2022-08-01T03:23:38.163Z,16.70
2022-08-01T03:24:45.111Z,16.70
2022-08-01T03:25:50.768Z,16.70
2022-08-01T03:26:58.785Z,17.50
2022-08-01T03:28:05.769Z,16.80
2022-08-01T03:29:15.078Z,16.70
2022-08-01T03:30:18.325Z,16.70
2022-08-01T03:31:21.963Z,16.70
2022-08-01T03:32:31.312Z,16.70
2022-08-01T03:33:35.426Z,16.70
2022-08-01T03:34:38.319Z,16.70
2022-08-01T03:35:49.998Z,16.70
2022-08-01T03:37:01.119Z,16.20
2022-08-01T03:38:16.169Z,16.80
2022-08-01T03:39:22.849Z,16.80
2022-08-01T03:40:32.124Z,16.80
2022-08-01T03:41:42.856Z,16.80
2022-08-01T03:42:49.227Z,16.80
2022-08-01T03:43:59.601Z,16.80
2022-08-01T03:45:13.464Z,16.80
2022-08-01T03:46:22.324Z,16.90
2022-08-01T03:47:34.709Z,16.90
2022-08-01T03:48:51.136Z,17.00
2022-08-01T03:49:55.310Z,16.90
2022-08-01T03:51:02.036Z,17.00
2022-08-01T03:52:08.844Z,17.00
2022-08-01T03:53:15.431Z,17.00
2022-08-01T03:54:24.782Z,17.10
2022-08-01T03:55:29.689Z,17.00
2022-08-01T03:56:35.005Z,17.00
2022-08-01T03:57:40.251Z,17.00
2022-08-01T03:58:44.748Z,17.00
2022-08-01T03:59:57.453Z,17.00
2022-08-01T04:01:01.890Z,17.00
2022-08-01T04:02:05.662Z,17.10
2022-08-01T04:03:11.349Z,17.10
2022-08-01T04:04:15.111Z,17.20
2022-08-01T04:05:19.360Z,17.10
2022-08-01T04:06:23.678Z,17.20
2022-08-01T04:07:28.836Z,17.20
2022-08-01T04:08:36.894Z,17.20
2022-08-01T04:09:40.674Z,17.20
2022-08-01T04:10:45.253Z,17.20
2022-08-01T04:11:49.370Z,17.20
2022-08-01T04:12:51.948Z,17.20
2022-08-01T04:13:56.487Z,17.30
2022-08-01T04:15:00.748Z,17.30
2022-08-01T04:16:04.628Z,17.30
2022-08-01T04:17:07.226Z,17.40
2022-08-01T04:18:11.079Z,17.30
2022-08-01T04:19:16.643Z,17.30
2022-08-01T04:20:20.618Z,17.30
2022-08-01T04:21:28.905Z,17.20
2022-08-01T04:22:33.033Z,17.20
2022-08-01T04:23:44.948Z,17.20
2022-08-01T04:24:56.879Z,17.20
2022-08-01T04:26:05.272Z,17.20
2022-08-01T04:27:14.319Z,17.20
2022-08-01T04:28:20.756Z,17.20
2022-08-01T04:29:27.392Z,16.00
2022-08-01T04:30:35.306Z,17.20
2022-08-01T04:31:44.327Z,17.20
2022-08-01T04:32:51.566Z,17.20
2022-08-01T04:33:57.997Z,17.20
2022-08-01T04:35:03.980Z,17.20
2022-08-01T04:36:31.151Z,17.20
2022-08-01T04:37:38.223Z,17.20
2022-08-01T04:38:49.004Z,17.20
2022-08-01T04:39:56.527Z,17.20
2022-08-01T04:41:08.530Z,17.20
2022-08-01T04:42:16.957Z,17.20
2022-08-01T04:43:28.036Z,17.20
2022-08-01T04:44:33.486Z,17.20
2022-08-01T04:45:37.964Z,17.20
2022-08-01T04:46:44.730Z,17.20
2022-08-01T04:47:49.101Z,17.20
2022-08-01T04:48:53.978Z,17.20
2022-08-01T04:49:57.892Z,17.60
2022-08-01T04:51:01.410Z,17.10
2022-08-01T04:52:07.688Z,17.10
2022-08-01T04:53:14.939Z,17.20
2022-08-01T04:54:18.448Z,17.20
2022-08-01T04:55:21.091Z,17.20
2022-08-01T04:56:29.438Z,17.20
2022-08-01T04:57:32.770Z,17.20
2022-08-01T04:58:36.278Z,17.20
2022-08-01T04:59:44.263Z,17.20
2022-08-01T05:00:48.452Z,17.20
2022-08-01T05:01:52.756Z,17.20
2022-08-01T05:02:56.254Z,17.30
2022-08-01T05:03:59.146Z,17.30
2022-08-01T05:05:02.984Z,17.30
2022-08-01T05:06:05.696Z,17.40
2022-08-01T05:07:15.218Z,17.30
2022-08-01T05:08:17.932Z,17.40
2022-08-01T05:09:21.685Z,17.40
2022-08-01T05:10:24.835Z,17.40
2022-08-01T05:11:31.890Z,17.40
2022-08-01T05:12:34.408Z,17.40
2022-08-01T05:13:37.913Z,17.40
2022-08-01T05:14:41.403Z,17.40
2022-08-01T05:15:45.398Z,17.30
2022-08-01T05:16:50.986Z,17.30
2022-08-01T05:17:54.476Z,17.30
2022-08-01T05:18:56.830Z,17.30
2022-08-01T05:20:00.276Z,17.20
2022-08-01T05:21:03.600Z,17.20
2022-08-01T05:22:09.673Z,17.20
2022-08-01T05:23:24.882Z,17.20
2022-08-01T05:24:42.145Z,17.20
2022-08-01T05:25:57.389Z,17.40
2022-08-01T05:27:05.578Z,17.30
2022-08-01T05:28:10.047Z,17.40
2022-08-01T05:29:13.512Z,17.50
2022-08-01T05:30:17.143Z,17.50
2022-08-01T05:31:20.156Z,17.70
2022-08-01T05:32:23.961Z,17.70
2022-08-01T05:33:26.595Z,17.80
2022-08-01T05:34:30.776Z,17.90
2022-08-01T05:35:48.162Z,17.90
2022-08-01T05:36:56.785Z,18.00
2022-08-01T05:38:01.932Z,18.10
2022-08-01T05:39:07.077Z,18.10
2022-08-01T05:40:11.750Z,18.20
2022-08-01T05:41:15.821Z,18.30
2022-08-01T05:42:19.822Z,18.50
2022-08-01T05:43:28.207Z,18.60
2022-08-01T05:44:32.629Z,18.80
2022-08-01T05:45:37.666Z,19.00
2022-08-01T05:46:41.210Z,19.20
2022-08-01T05:47:44.248Z,19.30
2022-08-01T05:48:47.979Z,19.40
2022-08-01T05:49:50.662Z,19.60
2022-08-01T05:50:58.902Z,19.70
2022-08-01T05:52:03.610Z,19.90
2022-08-01T05:53:06.448Z,20.10
2022-08-01T05:54:11.529Z,20.30
2022-08-01T05:55:14.131Z,20.50
2022-08-01T05:56:17.783Z,20.60
2022-08-01T05:57:21.166Z,20.80
2022-08-01T05:58:25.878Z,21.00
2022-08-01T05:59:30.090Z,21.10
2022-08-01T06:00:33.007Z,21.30
2022-08-01T06:01:36.562Z,21.40
2022-08-01T06:02:42.913Z,21.50
2022-08-01T06:03:46.814Z,21.70
2022-08-01T06:04:49.528Z,21.80
2022-08-01T06:05:54.884Z,22.00
2022-08-01T06:06:58.495Z,22.10
2022-08-01T06:08:01.349Z,22.20
2022-08-01T06:09:05.334Z,22.40
2022-08-01T06:10:10.605Z,22.60
2022-08-01T06:11:14.352Z,22.70
2022-08-01T06:12:18.016Z,22.90
2022-08-01T06:13:21.014Z,23.00
2022-08-01T06:14:24.869Z,23.20
2022-08-01T06:15:27.620Z,23.30
2022-08-01T06:16:31.280Z,23.40
2022-08-01T06:17:34.151Z,23.60
2022-08-01T06:18:37.793Z,23.70
2022-08-01T06:19:41.379Z,23.80
2022-08-01T06:20:44.517Z,23.90
2022-08-01T06:21:49.289Z,24.10
2022-08-01T06:22:52.822Z,23.30
2022-08-01T06:23:56.322Z,24.20
2022-08-01T06:24:58.830Z,24.30
2022-08-01T06:26:03.654Z,24.40
2022-08-01T06:27:06.165Z,24.60
2022-08-01T06:28:26.354Z,24.70
2022-08-01T06:29:31.108Z,24.70
2022-08-01T06:30:34.755Z,24.70
2022-08-01T06:31:37.510Z,24.90
2022-08-01T06:32:41.174Z,25.00
2022-08-01T06:33:47.568Z,25.10
2022-08-01T06:34:50.503Z,25.30
2022-08-01T06:35:54.426Z,25.40
2022-08-01T06:36:58.661Z,25.60
2022-08-01T06:38:01.319Z,25.60
2022-08-01T06:39:05.725Z,25.70
2022-08-01T06:40:16.213Z,25.90
2022-08-01T06:41:21.825Z,26.00
2022-08-01T06:42:25.535Z,26.10
2022-08-01T06:43:29.413Z,26.10
2022-08-01T06:44:32.241Z,26.20
2022-08-01T06:45:37.799Z,26.20
2022-08-01T06:46:41.615Z,26.10
2022-08-01T06:47:50.617Z,26.10
2022-08-01T06:48:55.571Z,26.00
2022-08-01T06:49:58.257Z,26.10
2022-08-01T06:51:10.942Z,26.20
2022-08-01T06:52:13.720Z,26.30
2022-08-01T06:53:17.313Z,26.40
2022-08-01T06:54:20.087Z,26.50
2022-08-01T06:55:29.029Z,26.50
2022-08-01T06:56:33.209Z,26.60
2022-08-01T06:57:36.913Z,26.70
2022-08-01T06:58:43.241Z,26.70
2022-08-01T06:59:54.240Z,26.70
2022-08-01T07:00:58.677Z,26.80
2022-08-01T07:02:02.958Z,26.80
2022-08-01T07:03:06.729Z,26.90
2022-08-01T07:04:09.289Z,27.00
2022-08-01T07:05:13.373Z,27.00
2022-08-01T07:06:18.194Z,27.10
2022-08-01T07:07:20.787Z,27.10
2022-08-01T07:08:28.686Z,27.20
2022-08-01T07:09:31.516Z,27.30
2022-08-01T07:10:35.419Z,27.30
2022-08-01T07:11:39.967Z,27.30
2022-08-01T07:12:43.853Z,27.30
2022-08-01T07:13:46.872Z,27.40
2022-08-01T07:14:50.784Z,27.30
2022-08-01T07:15:55.331Z,27.30
2022-08-01T07:17:01.777Z,27.30
2022-08-01T07:18:05.972Z,27.30
2022-08-01T07:19:10.002Z,27.30
2022-08-01T07:20:16.363Z,27.40
2022-08-01T07:21:40.171Z,27.50
2022-08-01T07:22:47.501Z,27.50
2022-08-01T07:23:51.279Z,27.40
2022-08-01T07:24:58.568Z,27.50
2022-08-01T07:26:02.535Z,27.50
2022-08-01T07:27:22.949Z,27.50
2022-08-01T07:28:28.267Z,27.50
2022-08-01T07:29:32.153Z,27.40
2022-08-01T07:30:36.148Z,27.40
2022-08-01T07:31:39.691Z,27.40
2022-08-01T07:32:46.755Z,27.40
2022-08-01T07:33:50.562Z,27.30
2022-08-01T07:34:54.611Z,27.20
2022-08-01T07:36:00.613Z,27.20
2022-08-01T07:37:03.670Z,27.30
2022-08-01T07:38:12.638Z,27.30
2022-08-01T07:39:16.203Z,28.30
2022-08-01T07:40:20.622Z,27.40
2022-08-01T07:42:04.786Z,27.40
2022-08-01T07:42:49.479Z,27.40
2022-08-01T07:43:57.335Z,27.40
2022-08-01T07:45:03.889Z,27.40
2022-08-01T07:46:08.873Z,27.40
2022-08-01T07:47:12.568Z,27.40
2022-08-01T07:48:17.159Z,27.40
2022-08-01T07:49:20.161Z,27.30
2022-08-01T07:50:24.781Z,27.30
2022-08-01T07:51:27.479Z,27.30
2022-08-01T07:52:32.082Z,27.20
2022-08-01T07:53:34.607Z,26.70
2022-08-01T07:54:39.060Z,27.30
2022-08-01T07:55:43.010Z,27.30
2022-08-01T07:56:49.065Z,27.30
2022-08-01T07:57:56.384Z,28.10
2022-08-01T07:58:59.336Z,27.30
2022-08-01T08:00:06.408Z,27.30
2022-08-01T08:01:11.220Z,27.30
2022-08-01T08:02:14.151Z,27.30
2022-08-01T08:03:17.817Z,27.30
2022-08-01T08:04:20.957Z,27.30
2022-08-01T08:05:57.771Z,27.30
2022-08-01T08:06:50.306Z,27.30
2022-08-01T08:07:53.125Z,27.30
2022-08-01T08:08:57.534Z,27.20
2022-08-01T08:10:01.062Z,27.10
2022-08-01T08:11:05.279Z,27.10
2022-08-01T08:12:10.006Z,27.10
2022-08-01T08:13:15.941Z,27.20
2022-08-01T08:14:32.230Z,27.10
2022-08-01T08:15:37.220Z,27.00
2022-08-01T08:16:42.429Z,27.00
2022-08-01T08:17:46.463Z,27.00
2022-08-01T08:18:58.873Z,26.80
2022-08-01T08:20:03.555Z,26.80
2022-08-01T08:21:09.972Z,26.70
2022-08-01T08:22:13.803Z,26.70
2022-08-01T08:23:42.998Z,26.80
2022-08-01T08:24:47.810Z,26.80
2022-08-01T08:25:53.767Z,26.90
2022-08-01T08:27:01.923Z,26.90
2022-08-01T08:28:06.637Z,27.00
2022-08-01T08:29:11.597Z,27.00
2022-08-01T08:30:16.221Z,27.00
2022-08-01T08:31:24.665Z,27.10
2022-08-01T08:32:30.057Z,27.10
2022-08-01T08:33:33.376Z,27.20
2022-08-01T08:34:37.234Z,27.20
2022-08-01T08:35:53.844Z,27.20
2022-08-01T08:36:59.158Z,27.20
2022-08-01T08:38:01.920Z,27.20
2022-08-01T08:39:08.255Z,27.30
2022-08-01T08:40:13.167Z,27.30
2022-08-01T08:41:21.298Z,27.30
2022-08-01T08:42:26.752Z,27.30
2022-08-01T08:43:29.630Z,27.30
2022-08-01T08:44:35.056Z,27.30
2022-08-01T08:45:59.490Z,27.30
2022-08-01T08:47:06.350Z,27.40
2022-08-01T08:48:16.035Z,27.40
2022-08-01T08:49:23.322Z,27.40
2022-08-01T08:50:29.169Z,26.10
2022-08-01T08:51:39.273Z,27.40
2022-08-01T08:52:45.624Z,27.50
2022-08-01T08:53:48.897Z,27.40
2022-08-01T08:54:54.691Z,27.40
2022-08-01T08:55:59.907Z,27.20
2022-08-01T08:57:04.114Z,27.20
2022-08-01T08:58:07.386Z,27.20
2022-08-01T08:59:15.843Z,27.10
2022-08-01T09:00:21.519Z,27.10
2022-08-01T09:01:24.498Z,27.10
2022-08-01T09:02:29.000Z,27.10
2022-08-01T09:03:32.805Z,27.20
2022-08-01T09:04:36.584Z,27.20
2022-08-01T09:05:39.583Z,27.30
2022-08-01T09:06:44.691Z,27.30
2022-08-01T09:07:47.766Z,27.30
2022-08-01T09:08:51.714Z,27.40
2022-08-01T09:09:55.133Z,27.50
2022-08-01T09:10:58.888Z,27.50
2022-08-01T09:12:02.726Z,27.50
2022-08-01T09:13:11.754Z,27.50
2022-08-01T09:14:25.952Z,27.50
2022-08-01T09:15:41.726Z,27.50
2022-08-01T09:16:49.064Z,27.40
2022-08-01T09:17:53.363Z,27.40
2022-08-01T09:19:16.414Z,27.40
2022-08-01T09:20:32.627Z,27.50
2022-08-01T09:21:35.270Z,27.50
2022-08-01T09:22:39.329Z,27.50
2022-08-01T09:23:54.324Z,27.50
2022-08-01T09:25:05.457Z,27.50
2022-08-01T09:26:09.355Z,27.20
2022-08-01T09:27:22.314Z,27.20
2022-08-01T09:28:30.412Z,27.10
2022-08-01T09:29:37.162Z,27.10
2022-08-01T09:30:43.570Z,27.20
2022-08-01T09:31:50.858Z,27.10
2022-08-01T09:32:59.467Z,27.00
2022-08-01T09:34:05.268Z,27.00
2022-08-01T09:35:30.309Z,27.10
2022-08-01T09:36:54.300Z,26.90
2022-08-01T09:38:16.002Z,27.00
2022-08-01T09:39:22.204Z,27.10
2022-08-01T09:40:24.708Z,27.20
2022-08-01T09:41:37.964Z,27.10
2022-08-01T09:42:44.272Z,27.10
2022-08-01T09:43:52.737Z,25.90
2022-08-01T09:44:57.526Z,27.10
2022-08-01T09:46:15.898Z,27.00
2022-08-01T09:47:23.565Z,27.00
2022-08-01T09:48:30.224Z,26.90
2022-08-01T09:49:50.799Z,27.00
2022-08-01T09:50:55.455Z,27.10
2022-08-01T09:52:01.068Z,27.10
2022-08-01T09:53:04.995Z,27.20
2022-08-01T09:54:09.836Z,27.20
2022-08-01T09:55:13.658Z,27.20
2022-08-01T09:56:17.345Z,27.30
2022-08-01T09:57:22.330Z,27.00
2022-08-01T09:58:25.094Z,27.20
2022-08-01T09:59:57.396Z,27.20
2022-08-01T10:01:02.388Z,27.20
2022-08-01T10:02:08.033Z,27.20
2022-08-01T10:03:25.122Z,27.20
2022-08-01T10:04:28.661Z,27.20
2022-08-01T10:05:36.858Z,27.20
2022-08-01T10:06:45.026Z,27.20
2022-08-01T10:07:59.289Z,27.20
2022-08-01T10:09:01.916Z,27.20
2022-08-01T10:10:14.681Z,27.20
2022-08-01T10:11:22.479Z,27.20
2022-08-01T10:12:45.186Z,27.20
2022-08-01T10:13:49.978Z,27.20
2022-08-01T10:14:56.652Z,27.10
2022-08-01T10:16:01.683Z,27.00
2022-08-01T10:17:10.722Z,27.10
2022-08-01T10:18:26.215Z,27.00
2022-08-01T10:19:33.953Z,27.00
2022-08-01T10:20:38.547Z,27.00
2022-08-01T10:21:56.324Z,27.10
2022-08-01T10:23:06.841Z,27.10
2022-08-01T10:24:14.065Z,27.10
2022-08-01T10:25:42.009Z,27.20
2022-08-01T10:26:45.520Z,27.20
2022-08-01T10:27:53.097Z,27.20
2022-08-01T10:29:00.748Z,27.20
2022-08-01T10:30:16.815Z,27.10
2022-08-01T10:31:30.917Z,27.10
2022-08-01T10:32:40.038Z,27.10
2022-08-01T10:33:50.457Z,27.20
2022-08-01T10:35:06.159Z,27.20
2022-08-01T10:36:20.583Z,27.30
2022-08-01T10:37:27.183Z,27.20
2022-08-01T10:38:30.068Z,27.20
2022-08-01T10:39:35.068Z,27.20
2022-08-01T10:40:40.278Z,27.20
2022-08-01T10:41:44.119Z,27.10
2022-08-01T10:42:47.335Z,27.10
2022-08-01T10:43:55.423Z,27.10
2022-08-01T10:45:01.363Z,27.20
2022-08-01T10:46:08.917Z,27.10
2022-08-01T10:47:21.011Z,27.10
2022-08-01T10:48:36.656Z,26.90
2022-08-01T10:49:50.565Z,27.10
2022-08-01T10:50:55.977Z,27.10
2022-08-01T10:52:01.028Z,27.00
2022-08-01T10:53:16.735Z,27.00
2022-08-01T10:54:29.114Z,26.90
2022-08-01T10:55:50.426Z,26.90
2022-08-01T10:56:57.001Z,26.80
2022-08-01T10:58:08.896Z,26.80
2022-08-01T10:59:49.282Z,26.80
2022-08-01T11:00:48.358Z,26.90
2022-08-01T11:02:00.686Z,26.90
2022-08-01T11:03:06.671Z,26.90
2022-08-01T11:04:18.489Z,26.90
2022-08-01T11:05:25.582Z,26.90
2022-08-01T11:06:44.302Z,26.90
2022-08-01T11:07:54.397Z,26.90
2022-08-01T11:09:02.719Z,26.90
2022-08-01T11:10:19.291Z,26.80
2022-08-01T11:11:27.527Z,26.70
2022-08-01T11:12:44.010Z,25.80
2022-08-01T11:14:12.801Z,26.60
2022-08-01T11:15:30.068Z,26.60
2022-08-01T11:16:40.559Z,26.60
2022-08-01T11:17:48.926Z,26.60
2022-08-01T11:18:53.244Z,26.60
2022-08-01T11:20:12.087Z,26.70
2022-08-01T11:21:57.659Z,26.80
2022-08-01T11:23:27.836Z,26.80
2022-08-01T11:25:02.384Z,26.80
2022-08-01T11:26:29.044Z,26.80
2022-08-01T11:27:35.034Z,26.90
2022-08-01T11:29:22.657Z,27.00
2022-08-01T11:30:27.099Z,27.00
2022-08-01T11:31:37.528Z,27.00
2022-08-01T11:33:11.528Z,27.10
2022-08-01T11:34:15.621Z,27.10
2022-08-01T11:35:21.900Z,27.10
2022-08-01T11:36:56.692Z,27.10
2022-08-01T11:37:53.591Z,27.10
2022-08-01T11:39:19.519Z,27.10
2022-08-01T11:40:25.948Z,27.10
2022-08-01T11:41:37.295Z,26.90
2022-08-01T11:42:49.697Z,26.90
2022-08-01T11:44:03.065Z,27.00
2022-08-01T11:45:16.734Z,27.00
2022-08-01T11:46:21.683Z,27.00
2022-08-01T11:47:47.673Z,27.00
2022-08-01T11:49:25.941Z,27.10
2022-08-01T11:50:36.369Z,26.90
2022-08-01T11:51:40.047Z,26.90
2022-08-01T11:52:46.807Z,26.90
2022-08-01T11:53:53.440Z,26.40
2022-08-01T11:55:00.517Z,26.90
2022-08-01T11:56:04.364Z,26.90
2022-08-01T11:57:14.275Z,26.90
2022-08-01T11:58:27.737Z,26.90
2022-08-01T12:00:03.770Z,26.90
2022-08-01T12:01:21.558Z,27.00
2022-08-01T12:02:30.180Z,27.00
2022-08-01T12:03:36.619Z,27.00
2022-08-01T12:04:54.241Z,27.10
2022-08-01T12:05:58.437Z,27.10
2022-08-01T12:07:14.578Z,27.10
2022-08-01T12:08:34.123Z,27.10
2022-08-01T12:09:42.237Z,27.10
2022-08-01T12:10:52.956Z,27.20
2022-08-01T12:12:07.039Z,27.10
2022-08-01T12:13:10.937Z,27.10
2022-08-01T12:14:22.255Z,27.20
2022-08-01T12:15:32.100Z,27.10
2022-08-01T12:16:36.131Z,27.10
2022-08-01T12:17:45.828Z,27.20
2022-08-01T12:19:02.732Z,27.20
2022-08-01T12:20:07.487Z,27.20
2022-08-01T12:21:11.938Z,27.30
2022-08-01T12:22:16.307Z,27.20
2022-08-01T12:23:21.193Z,27.30
2022-08-01T12:24:24.190Z,27.30
2022-08-01T12:25:28.929Z,27.30
2022-08-01T12:26:41.700Z,27.30
2022-08-01T12:27:54.341Z,27.20
2022-08-01T12:29:03.060Z,27.20
2022-08-01T12:30:09.816Z,27.20
2022-08-01T12:31:13.573Z,27.20
2022-08-01T12:32:35.327Z,27.20
2022-08-01T12:33:40.314Z,27.30
2022-08-01T12:34:42.978Z,27.20
2022-08-01T12:35:48.059Z,27.20
2022-08-01T12:36:51.004Z,27.20
2022-08-01T12:37:56.627Z,27.20
2022-08-01T12:39:02.159Z,27.20
2022-08-01T12:40:13.022Z,27.20
2022-08-01T12:41:16.639Z,27.30
2022-08-01T12:42:20.539Z,27.30
2022-08-01T12:43:27.786Z,27.40
2022-08-01T12:44:32.798Z,27.40
2022-08-01T12:45:42.398Z,27.40
2022-08-01T12:47:02.980Z,27.40
2022-08-01T12:48:12.832Z,27.40
2022-08-01T12:49:19.919Z,27.50
2022-08-01T12:50:29.292Z,27.50
2022-08-01T12:51:35.314Z,27.50
2022-08-01T12:52:39.708Z,27.50
2022-08-01T12:53:42.589Z,27.50
2022-08-01T12:55:09.929Z,27.50
2022-08-01T12:56:14.269Z,27.50
2022-08-01T12:57:24.732Z,27.40
2022-08-01T12:58:35.454Z,27.40
2022-08-01T12:59:38.391Z,27.40
2022-08-01T13:00:45.643Z,27.40
2022-08-01T13:01:48.922Z,27.40
2022-08-01T13:03:09.215Z,27.30
2022-08-01T13:04:13.285Z,26.00
2022-08-01T13:05:18.838Z,27.20
2022-08-01T13:06:26.658Z,27.20
2022-08-01T13:07:45.434Z,27.20
2022-08-01T13:08:49.865Z,27.20
2022-08-01T13:09:53.114Z,27.10
2022-08-01T13:11:03.664Z,27.00
2022-08-01T13:12:10.125Z,27.00
2022-08-01T13:13:27.957Z,27.10
2022-08-01T13:14:31.820Z,27.10
2022-08-01T13:15:41.915Z,27.10
2022-08-01T13:16:57.182Z,27.10
2022-08-01T13:18:04.461Z,27.10
2022-08-01T13:19:07.742Z,27.20
2022-08-01T13:20:27.547Z,27.20
2022-08-01T13:21:34.464Z,27.20
2022-08-01T13:22:57.711Z,27.20
2022-08-01T13:24:08.241Z,27.30
2022-08-01T13:25:14.227Z,27.30
2022-08-01T13:26:19.176Z,27.30
2022-08-01T13:27:25.209Z,27.20
2022-08-01T13:28:30.489Z,27.30
2022-08-01T13:29:34.644Z,27.30
2022-08-01T13:30:38.748Z,27.40
2022-08-01T13:31:43.905Z,27.40
2022-08-01T13:33:04.971Z,27.40
2022-08-01T13:34:08.562Z,27.40
2022-08-01T13:35:15.169Z,27.30
2022-08-01T13:36:18.159Z,27.30
2022-08-01T13:37:23.377Z,27.20
2022-08-01T13:38:44.903Z,27.30
2022-08-01T13:39:48.965Z,27.30
2022-08-01T13:40:59.652Z,27.30
2022-08-01T13:42:04.008Z,27.40
2022-08-01T13:43:07.752Z,27.40
2022-08-01T13:44:11.922Z,27.40
2022-08-01T13:45:16.374Z,27.40
2022-08-01T13:46:20.477Z,27.40
2022-08-01T13:47:31.588Z,27.40
2022-08-01T13:48:36.159Z,27.40
2022-08-01T13:49:40.973Z,27.40
2022-08-01T13:50:53.374Z,27.40
2022-08-01T13:52:09.076Z,27.40
2022-08-01T13:53:13.069Z,27.40
2022-08-01T13:54:15.624Z,27.50
2022-08-01T13:55:19.690Z,27.50
2022-08-01T13:56:23.650Z,28.70
2022-08-01T13:57:36.981Z,27.50
2022-08-01T13:58:44.130Z,27.40
2022-08-01T13:59:47.413Z,27.50
2022-08-01T14:00:51.971Z,27.40
2022-08-01T14:01:54.828Z,27.40
2022-08-01T14:02:58.546Z,27.40
2022-08-01T14:04:01.571Z,27.50
2022-08-01T14:05:07.293Z,27.50
2022-08-01T14:06:13.079Z,27.50
2022-08-01T14:07:15.667Z,27.60
2022-08-01T14:08:25.247Z,27.60
2022-08-01T14:09:32.263Z,27.60
2022-08-01T14:10:36.299Z,27.60
2022-08-01T14:11:38.878Z,27.60
2022-08-01T14:12:50.710Z,27.60
2022-08-01T14:13:54.023Z,27.60
2022-08-01T14:14:58.038Z,27.70
2022-08-01T14:16:01.188Z,27.60
2022-08-01T14:17:05.531Z,27.60
2022-08-01T14:18:11.054Z,27.60
2022-08-01T14:19:17.187Z,27.60
2022-08-01T14:20:21.029Z,27.60
2022-08-01T14:21:26.344Z,27.60
2022-08-01T14:22:28.980Z,27.70
2022-08-01T14:23:32.690Z,27.70
2022-08-01T14:24:35.149Z,27.70
2022-08-01T14:26:02.914Z,27.60
2022-08-01T14:27:03.927Z,27.60
2022-08-01T14:28:08.497Z,27.70
2022-08-01T14:29:10.854Z,27.70
2022-08-01T14:30:15.916Z,27.70
2022-08-01T14:31:20.048Z,27.60
2022-08-01T14:32:28.419Z,27.60
2022-08-01T14:33:34.491Z,27.50
2022-08-01T14:34:37.552Z,27.50